Time;durP1;ratioP1;P1;durP2;ratioP2;P2;SDS_P1;SDS_P2;PMS_P1;PMS_P2;Temp;Humidity;BMP_temperature;BMP_pressure;BME280_temperature;BME280_humidity;BME280_pressure;Samples;Min_cycle;Max_cycle;Signal;HPM_P1;HPM_P2
2022/03/14 00:01:58;;;;;;;;;;;21.00;26.20;;;;;;484699;246;1055;-38
2022/03/14 00:04:00;;;;;;;;;;;21.00;26.20;;;;;;484603;246;1409;-38
2022/03/14 00:06:01;;;;;;;;;;;21.00;26.20;;;;;;484562;246;1041;-38
2022/03/14 00:08:02;;;;;;;;;;;21.00;26.20;;;;;;484476;246;1233;-38
2022/03/14 00:10:03;;;;;;;;;;;21.00;26.20;;;;;;484743;246;1046;-39
2022/03/14 00:12:07;;;;;;;;;;;21.00;26.20;;;;;;484310;246;1083;-38
2022/03/14 00:14:08;;;;;;;;;;;21.00;26.20;;;;;;484196;246;2399;-38
2022/03/14 00:16:08;;;;;;;;;;;21.00;26.20;;;;;;484614;246;2078;-38
2022/03/14 00:18:12;;;;;;;;;;;21.00;26.20;;;;;;484665;246;1103;-38
2022/03/14 00:20:12;;;;;;;;;;;21.00;26.30;;;;;;484186;246;2240;-38
2022/03/14 00:22:14;;;;;;;;;;;21.00;26.30;;;;;;484010;246;2499;-38
2022/03/14 00:24:13;;;;;;;;;;;21.00;26.30;;;;;;484508;246;2375;-38
2022/03/14 00:26:15;;;;;;;;;;;21.00;26.30;;;;;;484618;246;1399;-38
2022/03/14 00:28:16;;;;;;;;;;;21.10;26.20;;;;;;484746;246;1032;-38
2022/03/14 00:30:17;;;;;;;;;;;21.00;26.20;;;;;;484281;246;1094;-38
2022/03/14 00:32:19;;;;;;;;;;;21.00;26.30;;;;;;484607;246;1693;-38
2022/03/14 00:34:20;;;;;;;;;;;21.00;26.30;;;;;;484584;246;2120;-39
2022/03/14 00:36:22;;;;;;;;;;;21.00;26.30;;;;;;484488;246;1424;-39
2022/03/14 00:38:25;;;;;;;;;;;21.00;26.30;;;;;;484450;246;2135;-38
2022/03/14 00:40:24;;;;;;;;;;;21.00;26.30;;;;;;484623;246;1842;-38
2022/03/14 00:42:25;;;;;;;;;;;21.00;26.30;;;;;;484689;246;1062;-38
2022/03/14 00:44:26;;;;;;;;;;;21.00;26.30;;;;;;484593;246;1048;-39
2022/03/14 00:46:28;;;;;;;;;;;21.10;26.30;;;;;;484451;246;1016;-38
2022/03/14 00:48:32;;;;;;;;;;;21.00;26.30;;;;;;484550;246;1098;-39
2022/03/14 00:50:30;;;;;;;;;;;21.00;26.30;;;;;;484175;246;2064;-38
2022/03/14 00:52:32;;;;;;;;;;;21.00;26.30;;;;;;484701;246;1321;-38
2022/03/14 00:54:33;;;;;;;;;;;21.10;26.30;;;;;;484751;246;2112;-38
2022/03/14 00:56:35;;;;;;;;;;;21.00;26.30;;;;;;484695;246;1349;-38
2022/03/14 00:58:36;;;;;;;;;;;21.00;26.30;;;;;;484365;246;2065;-39
2022/03/14 01:00:37;;;;;;;;;;;21.00;26.30;;;;;;484271;246;1198;-38
2022/03/14 01:02:38;;;;;;;;;;;21.00;26.30;;;;;;484312;246;1054;-39
2022/03/14 01:04:40;;;;;;;;;;;21.00;26.30;;;;;;484588;246;1164;-38
2022/03/14 01:06:41;;;;;;;;;;;21.00;26.30;;;;;;484507;246;1200;-38
2022/03/14 01:08:42;;;;;;;;;;;21.00;26.30;;;;;;484439;246;1049;-39
2022/03/14 01:10:44;;;;;;;;;;;21.00;26.30;;;;;;484297;246;1243;-39
2022/03/14 01:12:45;;;;;;;;;;;21.00;26.30;;;;;;484478;246;1152;-39
2022/03/14 01:14:46;;;;;;;;;;;21.00;26.30;;;;;;484780;246;2105;-39
2022/03/14 01:16:48;;;;;;;;;;;21.10;26.30;;;;;;484663;246;1120;-39
2022/03/14 01:18:49;;;;;;;;;;;21.00;26.30;;;;;;484415;246;1179;-38
2022/03/14 01:20:50;;;;;;;;;;;21.00;26.30;;;;;;484316;241;1172;-39
2022/03/14 01:22:54;;;;;;;;;;;21.00;26.30;;;;;;484242;246;1229;-38
2022/03/14 01:24:53;;;;;;;;;;;21.00;26.30;;;;;;484143;246;1652;-38
2022/03/14 01:26:54;;;;;;;;;;;21.00;26.30;;;;;;484697;246;1177;-39
2022/03/14 01:28:55;;;;;;;;;;;21.00;26.40;;;;;;484635;246;1053;-38
2022/03/14 01:30:58;;;;;;;;;;;21.10;26.30;;;;;;484284;246;1356;-39
2022/03/14 01:33:00;;;;;;;;;;;21.10;26.30;;;;;;484614;246;2479;-38
2022/03/14 01:35:00;;;;;;;;;;;21.10;26.30;;;;;;484251;246;2460;-39
2022/03/14 01:37:02;;;;;;;;;;;21.00;26.30;;;;;;484676;246;1543;-39
2022/03/14 01:39:04;;;;;;;;;;;21.00;26.30;;;;;;484737;246;1060;-39
2022/03/14 01:41:04;;;;;;;;;;;21.00;26.40;;;;;;484671;246;2502;-39
2022/03/14 01:43:06;;;;;;;;;;;21.00;26.30;;;;;;484265;246;1231;-38
2022/03/14 01:45:07;;;;;;;;;;;21.00;26.30;;;;;;484392;246;1176;-38
2022/03/14 01:47:08;;;;;;;;;;;21.00;26.30;;;;;;484449;246;1118;-38
2022/03/14 01:49:11;;;;;;;;;;;21.00;26.30;;;;;;484423;246;1083;-38
2022/03/14 01:51:11;;;;;;;;;;;21.00;26.30;;;;;;484305;246;2050;-38
2022/03/14 01:53:13;;;;;;;;;;;21.00;26.30;;;;;;484724;246;1070;-38
2022/03/14 01:55:14;;;;;;;;;;;21.00;26.30;;;;;;484736;246;2105;-38
2022/03/14 01:57:15;;;;;;;;;;;21.00;26.40;;;;;;484709;246;1064;-39
2022/03/14 01:59:17;;;;;;;;;;;21.00;26.30;;;;;;484708;246;1073;-38
2022/03/14 02:01:18;;;;;;;;;;;21.00;26.40;;;;;;484473;246;1078;-39
2022/03/14 02:03:19;;;;;;;;;;;21.00;26.40;;;;;;484751;246;969;-38
2022/03/14 02:05:21;;;;;;;;;;;21.00;26.40;;;;;;484485;246;1233;-38
2022/03/14 02:07:22;;;;;;;;;;;21.00;26.40;;;;;;484489;246;1121;-38
2022/03/14 02:09:23;;;;;;;;;;;21.00;26.30;;;;;;484732;246;1047;-39
2022/03/14 02:11:24;;;;;;;;;;;21.00;26.30;;;;;;484712;246;1017;-38
2022/03/14 02:13:26;;;;;;;;;;;21.00;26.30;;;;;;484645;246;1048;-38
2022/03/14 02:15:27;;;;;;;;;;;21.00;26.40;;;;;;484257;246;2192;-38
2022/03/14 02:17:28;;;;;;;;;;;21.00;26.40;;;;;;484245;246;1193;-38
2022/03/14 02:19:30;;;;;;;;;;;21.00;26.30;;;;;;484448;246;1038;-39
2022/03/14 02:21:31;;;;;;;;;;;21.00;26.40;;;;;;484392;246;1140;-39
2022/03/14 02:23:32;;;;;;;;;;;21.10;26.40;;;;;;484708;246;1094;-38
2022/03/14 02:25:34;;;;;;;;;;;21.10;26.40;;;;;;484752;246;1087;-39
2022/03/14 02:27:35;;;;;;;;;;;21.10;26.40;;;;;;484739;246;1020;-38
2022/03/14 02:29:37;;;;;;;;;;;21.10;26.30;;;;;;484360;246;989;-38
2022/03/14 02:31:38;;;;;;;;;;;21.00;26.30;;;;;;484419;246;1083;-39
2022/03/14 02:33:39;;;;;;;;;;;21.00;26.40;;;;;;484325;246;1067;-38
2022/03/14 02:35:42;;;;;;;;;;;21.00;26.40;;;;;;484519;246;2188;-38
2022/03/14 02:37:44;;;;;;;;;;;21.00;26.40;;;;;;484454;246;1459;-38
2022/03/14 02:39:43;;;;;;;;;;;21.00;26.40;;;;;;484657;246;2316;-38
2022/03/14 02:41:45;;;;;;;;;;;21.00;26.40;;;;;;484522;246;1198;-38
2022/03/14 02:43:46;;;;;;;;;;;21.00;26.40;;;;;;484285;246;1803;-38
2022/03/14 02:45:47;;;;;;;;;;;21.00;26.40;;;;;;484521;241;1443;-38
2022/03/14 02:47:48;;;;;;;;;;;21.00;26.40;;;;;;484281;246;1259;-39
2022/03/14 02:49:50;;;;;;;;;;;21.00;26.40;;;;;;484761;246;1062;-38
2022/03/14 02:51:52;;;;;;;;;;;21.00;26.40;;;;;;484261;246;1294;-39
2022/03/14 02:53:53;;;;;;;;;;;21.00;26.40;;;;;;484271;246;1911;-39
2022/03/14 02:55:54;;;;;;;;;;;21.00;26.40;;;;;;484720;246;2376;-38
2022/03/14 02:57:55;;;;;;;;;;;21.00;26.40;;;;;;484750;246;1366;-38
2022/03/14 02:59:57;;;;;;;;;;;21.00;26.40;;;;;;484417;246;1273;-38
2022/03/14 03:01:58;;;;;;;;;;;21.00;26.40;;;;;;484532;246;1345;-39
2022/03/14 03:03:59;;;;;;;;;;;21.00;26.40;;;;;;484657;246;999;-38
2022/03/14 03:06:02;;;;;;;;;;;21.00;26.40;;;;;;484573;246;1182;-38
2022/03/14 03:08:04;;;;;;;;;;;21.00;26.40;;;;;;484232;246;1861;-38
2022/03/14 03:10:04;;;;;;;;;;;20.90;26.50;;;;;;484197;246;1712;-39
2022/03/14 03:12:05;;;;;;;;;;;21.00;26.40;;;;;;484304;246;1119;-38
2022/03/14 03:14:06;;;;;;;;;;;21.00;26.50;;;;;;484786;246;1051;-38
2022/03/14 03:16:07;;;;;;;;;;;21.00;26.50;;;;;;484291;246;2120;-38
2022/03/14 03:18:09;;;;;;;;;;;21.00;26.40;;;;;;484375;246;1108;-38
2022/03/14 03:20:10;;;;;;;;;;;21.00;26.40;;;;;;484323;246;1047;-38
2022/03/14 03:22:12;;;;;;;;;;;21.00;26.40;;;;;;484363;246;1180;-38
2022/03/14 03:24:13;;;;;;;;;;;21.00;26.40;;;;;;484323;246;1082;-38
2022/03/14 03:26:15;;;;;;;;;;;21.00;26.40;;;;;;484326;246;1051;-38
2022/03/14 03:28:16;;;;;;;;;;;21.00;26.40;;;;;;484797;246;1057;-38
2022/03/14 03:30:17;;;;;;;;;;;21.00;26.40;;;;;;484769;246;1621;-38
2022/03/14 03:32:18;;;;;;;;;;;21.00;26.40;;;;;;484523;246;1084;-38
2022/03/14 03:34:20;;;;;;;;;;;21.00;26.40;;;;;;484336;246;1081;-39
2022/03/14 03:36:21;;;;;;;;;;;21.00;26.40;;;;;;484598;246;2109;-38
2022/03/14 03:38:22;;;;;;;;;;;21.00;26.40;;;;;;484390;246;1093;-38
2022/03/14 03:40:24;;;;;;;;;;;21.00;26.40;;;;;;484763;246;1081;-39
2022/03/14 03:42:25;;;;;;;;;;;21.00;26.40;;;;;;484253;246;1134;-38
2022/03/14 03:44:26;;;;;;;;;;;21.00;26.50;;;;;;484321;246;1051;-38
2022/03/14 03:46:27;;;;;;;;;;;21.00;26.50;;;;;;484678;246;1308;-39
2022/03/14 03:48:29;;;;;;;;;;;21.00;26.50;;;;;;484330;246;1061;-39
2022/03/14 03:50:31;;;;;;;;;;;21.00;26.40;;;;;;484749;246;1379;-39
2022/03/14 03:52:32;;;;;;;;;;;21.00;26.40;;;;;;484370;246;2207;-38
2022/03/14 03:54:33;;;;;;;;;;;21.00;26.40;;;;;;484366;246;2195;-38
2022/03/14 03:56:38;;;;;;;;;;;21.00;26.40;;;;;;484305;246;1510;-39
2022/03/14 03:58:36;;;;;;;;;;;21.00;26.40;;;;;;484583;246;2220;-38
2022/03/14 04:00:38;;;;;;;;;;;21.00;26.50;;;;;;484476;246;1073;-38
2022/03/14 04:02:39;;;;;;;;;;;21.00;26.50;;;;;;484374;246;2324;-39
2022/03/14 04:04:40;;;;;;;;;;;21.00;26.50;;;;;;484278;246;2282;-38
2022/03/14 04:06:41;;;;;;;;;;;20.90;26.40;;;;;;484533;246;1212;-38
2022/03/14 04:08:44;;;;;;;;;;;21.00;26.50;;;;;;484757;246;1010;-38
2022/03/14 04:10:44;;;;;;;;;;;21.00;26.50;;;;;;484638;246;2230;-38
2022/03/14 04:12:45;;;;;;;;;;;21.00;26.50;;;;;;484258;246;1249;-38
2022/03/14 04:14:47;;;;;;;;;;;21.00;26.50;;;;;;484696;246;2132;-38
2022/03/14 04:16:48;;;;;;;;;;;21.00;26.50;;;;;;484550;246;1173;-38
2022/03/14 04:18:49;;;;;;;;;;;21.00;26.50;;;;;;484331;246;1074;-38
2022/03/14 04:20:50;;;;;;;;;;;21.00;26.50;;;;;;484297;246;1164;-38
2022/03/14 04:22:52;;;;;;;;;;;21.00;26.50;;;;;;484251;246;1275;-38
2022/03/14 04:24:53;;;;;;;;;;;21.00;26.50;;;;;;484792;246;1074;-38
2022/03/14 04:26:54;;;;;;;;;;;21.00;26.50;;;;;;484335;246;1340;-38
2022/03/14 04:28:56;;;;;;;;;;;21.00;26.50;;;;;;484482;246;1032;-38
2022/03/14 04:30:57;;;;;;;;;;;21.00;26.50;;;;;;484609;246;1173;-38
2022/03/14 04:32:58;;;;;;;;;;;21.00;26.50;;;;;;484302;246;1175;-38
2022/03/14 04:35:00;;;;;;;;;;;21.00;26.50;;;;;;484752;246;2188;-39
2022/03/14 04:37:01;;;;;;;;;;;21.00;26.50;;;;;;484476;246;1325;-39
2022/03/14 04:39:04;;;;;;;;;;;21.00;26.50;;;;;;484297;246;983;-38
2022/03/14 04:41:04;;;;;;;;;;;21.00;26.50;;;;;;484325;246;2210;-38
2022/03/14 04:43:05;;;;;;;;;;;21.00;26.50;;;;;;484778;246;1052;-39
2022/03/14 04:45:06;;;;;;;;;;;21.00;26.50;;;;;;484789;246;1097;-38
2022/03/14 04:47:08;;;;;;;;;;;21.00;26.50;;;;;;484709;246;1062;-38
2022/03/14 04:49:10;;;;;;;;;;;21.00;26.50;;;;;;484765;246;976;-38
2022/03/14 04:51:11;;;;;;;;;;;21.00;26.50;;;;;;484685;246;2425;-38
2022/03/14 04:53:12;;;;;;;;;;;21.00;26.60;;;;;;484348;246;1177;-38
2022/03/14 04:55:13;;;;;;;;;;;21.00;26.60;;;;;;484420;246;2120;-39
2022/03/14 04:57:15;;;;;;;;;;;21.00;26.60;;;;;;484352;246;1037;-38
2022/03/14 04:59:16;;;;;;;;;;;21.00;26.60;;;;;;484636;246;1059;-39
2022/03/14 05:01:23;;;;;;;;;;;21.00;26.60;;;;;;484620;246;1045;-38
2022/03/14 05:03:19;;;;;;;;;;;21.00;26.60;;;;;;483953;246;2111;-38
2022/03/14 05:05:20;;;;;;;;;;;21.00;26.60;;;;;;484705;246;1015;-39
2022/03/14 05:07:22;;;;;;;;;;;21.00;26.60;;;;;;484287;246;1184;-38
2022/03/14 05:09:23;;;;;;;;;;;21.00;26.60;;;;;;484723;246;1115;-38
2022/03/14 05:11:25;;;;;;;;;;;21.00;26.60;;;;;;484591;246;1030;-38
2022/03/14 05:13:26;;;;;;;;;;;21.00;26.60;;;;;;484308;246;1062;-38
2022/03/14 05:15:27;;;;;;;;;;;21.00;26.70;;;;;;484678;246;2112;-38
2022/03/14 05:17:30;;;;;;;;;;;21.00;26.60;;;;;;484570;246;1102;-39
2022/03/14 05:19:30;;;;;;;;;;;21.00;26.60;;;;;;484601;246;2214;-39
2022/03/14 05:21:33;;;;;;;;;;;21.00;26.60;;;;;;484688;246;1096;-39
2022/03/14 05:23:34;;;;;;;;;;;21.00;26.60;;;;;;484128;246;1992;-39
2022/03/14 05:25:35;;;;;;;;;;;21.00;26.70;;;;;;484464;246;1036;-38
2022/03/14 05:27:36;;;;;;;;;;;21.00;26.60;;;;;;484204;246;1116;-38
2022/03/14 05:29:37;;;;;;;;;;;21.00;26.70;;;;;;484442;246;1081;-38
2022/03/14 05:31:39;;;;;;;;;;;21.00;26.70;;;;;;484405;246;1103;-38
2022/03/14 05:33:40;;;;;;;;;;;21.00;26.70;;;;;;484453;246;1138;-38
2022/03/14 05:35:41;;;;;;;;;;;21.00;26.70;;;;;;484124;246;2183;-38
2022/03/14 05:37:42;;;;;;;;;;;21.00;26.70;;;;;;484076;246;1192;-38
2022/03/14 05:39:44;;;;;;;;;;;21.00;26.70;;;;;;484141;246;1074;-39
2022/03/14 05:41:45;;;;;;;;;;;21.00;26.70;;;;;;484085;241;2269;-38
2022/03/14 05:43:46;;;;;;;;;;;21.00;26.70;;;;;;484586;246;1097;-38
2022/03/14 05:45:48;;;;;;;;;;;21.00;26.70;;;;;;484449;246;1063;-38
2022/03/14 05:47:49;;;;;;;;;;;21.00;26.70;;;;;;484470;246;1119;-38
2022/03/14 05:49:50;;;;;;;;;;;21.00;26.70;;;;;;483994;246;1097;-38
2022/03/14 05:51:52;;;;;;;;;;;21.00;26.70;;;;;;484042;246;1168;-38
2022/03/14 05:53:53;;;;;;;;;;;21.00;26.70;;;;;;484211;246;1179;-38
2022/03/14 05:55:54;;;;;;;;;;;21.00;26.70;;;;;;484351;246;2184;-38
2022/03/14 05:57:56;;;;;;;;;;;21.00;26.70;;;;;;484239;246;1101;-38
2022/03/14 05:59:57;;;;;;;;;;;21.00;26.70;;;;;;484033;246;2475;-38
2022/03/14 06:01:58;;;;;;;;;;;21.00;26.70;;;;;;484001;246;1238;-38
2022/03/14 06:04:00;;;;;;;;;;;21.00;26.70;;;;;;484025;246;1109;-39
2022/03/14 06:06:02;;;;;;;;;;;21.00;26.60;;;;;;484063;246;1136;-38
2022/03/14 06:08:02;;;;;;;;;;;21.00;26.70;;;;;;483955;246;2221;-38
2022/03/14 06:10:03;;;;;;;;;;;21.00;26.70;;;;;;484041;246;1058;-38
2022/03/14 06:12:05;;;;;;;;;;;21.00;26.70;;;;;;483958;246;1217;-39
2022/03/14 06:14:06;;;;;;;;;;;21.00;26.70;;;;;;484092;246;2267;-38
2022/03/14 06:16:08;;;;;;;;;;;20.90;26.80;;;;;;483904;246;2204;-39
2022/03/14 06:18:09;;;;;;;;;;;20.90;26.80;;;;;;484135;246;1035;-38
2022/03/14 06:20:10;;;;;;;;;;;21.00;26.80;;;;;;483938;246;1222;-39
2022/03/14 06:22:11;;;;;;;;;;;21.00;26.70;;;;;;484193;246;1130;-39
2022/03/14 06:24:13;;;;;;;;;;;21.00;26.70;;;;;;484018;246;1121;-38
2022/03/14 06:26:14;;;;;;;;;;;21.00;26.80;;;;;;484072;246;1062;-38
2022/03/14 06:28:15;;;;;;;;;;;20.90;26.70;;;;;;484280;246;1156;-38
2022/03/14 06:30:17;;;;;;;;;;;21.00;26.80;;;;;;484490;246;1047;-38
2022/03/14 06:32:18;;;;;;;;;;;20.90;26.80;;;;;;483992;246;1100;-38
2022/03/14 06:34:19;;;;;;;;;;;20.90;26.80;;;;;;483926;246;1077;-38
2022/03/14 06:36:21;;;;;;;;;;;21.00;26.80;;;;;;484100;246;2113;-39
2022/03/14 06:38:22;;;;;;;;;;;20.90;26.80;;;;;;484290;246;1297;-38
2022/03/14 06:40:26;;;;;;;;;;;21.00;26.80;;;;;;484030;246;1148;-38
2022/03/14 06:42:25;;;;;;;;;;;20.90;26.80;;;;;;483771;246;2303;-39
2022/03/14 06:44:27;;;;;;;;;;;20.90;26.80;;;;;;484089;246;1079;-38
2022/03/14 06:46:27;;;;;;;;;;;20.90;26.80;;;;;;484053;246;2703;-39
2022/03/14 06:48:29;;;;;;;;;;;20.90;26.90;;;;;;483955;246;1009;-38
2022/03/14 06:50:31;;;;;;;;;;;21.00;26.90;;;;;;483925;246;1100;-38
2022/03/14 06:52:32;;;;;;;;;;;21.00;26.90;;;;;;483915;246;2151;-39
2022/03/14 06:54:33;;;;;;;;;;;21.00;26.90;;;;;;483807;246;1171;-39
2022/03/14 06:56:34;;;;;;;;;;;21.00;26.90;;;;;;484135;246;2188;-38
2022/03/14 06:58:35;;;;;;;;;;;21.00;26.90;;;;;;484055;246;1117;-38
2022/03/14 07:00:37;;;;;;;;;;;21.00;26.90;;;;;;483896;246;1075;-38
2022/03/14 07:02:38;;;;;;;;;;;20.90;26.90;;;;;;483878;246;1206;-38
2022/03/14 07:04:40;;;;;;;;;;;20.90;26.80;;;;;;484198;246;1041;-38
2022/03/14 07:06:41;;;;;;;;;;;21.00;26.90;;;;;;483872;246;1246;-38
2022/03/14 07:08:42;;;;;;;;;;;21.00;26.80;;;;;;483818;246;1189;-38
2022/03/14 07:10:43;;;;;;;;;;;21.00;26.80;;;;;;483967;246;1142;-39
2022/03/14 07:12:46;;;;;;;;;;;21.00;26.90;;;;;;483839;246;1209;-38
2022/03/14 07:14:46;;;;;;;;;;;21.00;26.80;;;;;;483785;246;2218;-39
2022/03/14 07:16:48;;;;;;;;;;;21.00;26.90;;;;;;483728;246;2184;-38
2022/03/14 07:18:49;;;;;;;;;;;21.00;26.90;;;;;;483630;246;1109;-38
2022/03/14 07:20:50;;;;;;;;;;;21.00;26.80;;;;;;483700;246;1102;-39
2022/03/14 07:22:52;;;;;;;;;;;21.00;26.80;;;;;;483613;246;1218;-38
2022/03/14 07:24:53;;;;;;;;;;;21.10;26.90;;;;;;483474;246;1193;-38
2022/03/14 07:26:54;;;;;;;;;;;21.10;26.90;;;;;;483696;245;1196;-39
2022/03/14 07:28:56;;;;;;;;;;;21.00;26.90;;;;;;483635;246;1098;-38
2022/03/14 07:30:57;;;;;;;;;;;21.10;26.90;;;;;;483505;246;1072;-39
2022/03/14 07:32:58;;;;;;;;;;;21.00;26.90;;;;;;483426;246;1165;-38
2022/03/14 07:35:00;;;;;;;;;;;21.00;26.90;;;;;;483574;246;1096;-39
2022/03/14 07:37:01;;;;;;;;;;;21.00;26.90;;;;;;483592;246;2129;-39
2022/03/14 07:39:02;;;;;;;;;;;21.10;27.00;;;;;;483588;246;1200;-38
2022/03/14 07:41:04;;;;;;;;;;;21.10;27.00;;;;;;483604;246;1330;-38
2022/03/14 07:43:05;;;;;;;;;;;21.00;27.00;;;;;;483657;246;1157;-38
2022/03/14 07:45:09;;;;;;;;;;;21.00;27.00;;;;;;483763;246;1066;-39
2022/03/14 07:47:10;;;;;;;;;;;21.00;27.00;;;;;;483606;246;1481;-39
2022/03/14 07:49:12;;;;;;;;;;;21.10;27.00;;;;;;483590;246;1203;-39
2022/03/14 07:51:13;;;;;;;;;;;21.10;27.00;;;;;;483568;246;1635;-39
2022/03/14 07:53:15;;;;;;;;;;;21.00;27.00;;;;;;483673;246;1478;-38
2022/03/14 07:55:16;;;;;;;;;;;21.10;27.10;;;;;;483547;246;1197;-38
2022/03/14 07:57:17;;;;;;;;;;;21.00;27.10;;;;;;483356;246;2117;-38
2022/03/14 07:59:18;;;;;;;;;;;21.10;27.10;;;;;;483583;246;1041;-38
2022/03/14 08:01:20;;;;;;;;;;;21.10;27.10;;;;;;483332;246;1327;-39
2022/03/14 08:03:23;;;;;;;;;;;21.10;27.10;;;;;;483620;246;1122;-38
2022/03/14 08:05:24;;;;;;;;;;;21.00;27.10;;;;;;483349;246;2658;-38
2022/03/14 08:07:26;;;;;;;;;;;21.10;27.10;;;;;;483477;246;1248;-38
2022/03/14 08:09:27;;;;;;;;;;;21.10;27.10;;;;;;483377;246;2150;-38
2022/03/14 08:11:30;;;;;;;;;;;21.10;27.20;;;;;;483552;246;1181;-38
2022/03/14 08:13:30;;;;;;;;;;;21.10;27.10;;;;;;483166;246;2251;-38
2022/03/14 08:15:31;;;;;;;;;;;21.10;27.20;;;;;;483229;246;2124;-38
2022/03/14 08:17:35;;;;;;;;;;;21.10;27.20;;;;;;483420;246;2137;-38
2022/03/14 08:19:34;;;;;;;;;;;21.10;27.20;;;;;;483319;246;1821;-38
2022/03/14 08:21:35;;;;;;;;;;;21.10;27.30;;;;;;483388;246;2175;-39
2022/03/14 08:23:36;;;;;;;;;;;21.10;27.30;;;;;;483496;246;1201;-38
2022/03/14 08:25:37;;;;;;;;;;;21.10;27.30;;;;;;482999;246;1261;-38
2022/03/14 08:27:39;;;;;;;;;;;21.10;27.30;;;;;;483152;246;1092;-38
2022/03/14 08:29:40;;;;;;;;;;;21.10;27.30;;;;;;483072;246;1088;-39
2022/03/14 08:31:42;;;;;;;;;;;21.10;27.30;;;;;;483036;246;1226;-39
2022/03/14 08:33:44;;;;;;;;;;;21.00;27.30;;;;;;484142;246;2219;-38
2022/03/14 08:35:45;;;;;;;;;;;21.10;27.30;;;;;;483478;246;2176;-39
2022/03/14 08:37:46;;;;;;;;;;;21.10;27.30;;;;;;483433;246;2137;-38
2022/03/14 08:39:48;;;;;;;;;;;21.00;27.30;;;;;;483539;246;1219;-38
2022/03/14 08:41:49;;;;;;;;;;;21.10;27.30;;;;;;483290;246;1106;-38
2022/03/14 08:43:50;;;;;;;;;;;21.10;27.40;;;;;;483588;246;1198;-38
2022/03/14 08:45:51;;;;;;;;;;;21.10;27.40;;;;;;483466;246;1078;-39
2022/03/14 08:47:53;;;;;;;;;;;21.10;27.40;;;;;;483418;246;1078;-38
2022/03/14 08:49:54;;;;;;;;;;;21.10;27.40;;;;;;483459;246;1087;-38
2022/03/14 08:51:55;;;;;;;;;;;21.10;27.40;;;;;;483464;246;1218;-38
2022/03/14 08:53:57;;;;;;;;;;;21.10;27.40;;;;;;483040;246;1205;-39
2022/03/14 08:55:58;;;;;;;;;;;21.10;27.40;;;;;;483252;246;1278;-38
2022/03/14 08:58:00;;;;;;;;;;;21.10;27.40;;;;;;483181;246;2144;-39
2022/03/14 09:00:01;;;;;;;;;;;21.10;27.40;;;;;;483026;246;1131;-39
2022/03/14 09:02:02;;;;;;;;;;;21.10;27.40;;;;;;483121;246;1132;-38
2022/03/14 09:04:04;;;;;;;;;;;21.10;27.40;;;;;;483382;246;1162;-39
2022/03/14 09:06:05;;;;;;;;;;;21.10;27.40;;;;;;483304;246;1105;-39
2022/03/14 09:08:06;;;;;;;;;;;21.10;27.50;;;;;;483363;246;1099;-38
2022/03/14 09:10:08;;;;;;;;;;;21.10;27.40;;;;;;483367;242;1317;-38
2022/03/14 09:12:09;;;;;;;;;;;21.10;27.40;;;;;;483397;246;1156;-38
2022/03/14 09:14:10;;;;;;;;;;;21.10;27.40;;;;;;483389;246;1132;-38
2022/03/14 09:16:12;;;;;;;;;;;21.10;27.50;;;;;;483526;246;1170;-38
2022/03/14 09:18:14;;;;;;;;;;;21.10;27.50;;;;;;483412;246;2191;-38
2022/03/14 09:20:15;;;;;;;;;;;21.10;27.50;;;;;;483429;246;2130;-38
2022/03/14 09:22:18;;;;;;;;;;;21.10;27.50;;;;;;483434;246;1104;-38
2022/03/14 09:24:17;;;;;;;;;;;21.10;27.50;;;;;;483302;246;2151;-39
2022/03/14 09:26:19;;;;;;;;;;;21.10;27.50;;;;;;483445;246;1238;-38
2022/03/14 09:28:20;;;;;;;;;;;21.10;27.50;;;;;;483404;246;1327;-39
2022/03/14 09:30:22;;;;;;;;;;;21.10;27.50;;;;;;483397;246;1116;-39
2022/03/14 09:32:24;;;;;;;;;;;21.10;27.50;;;;;;483383;246;1056;-39
2022/03/14 09:34:25;;;;;;;;;;;21.10;27.60;;;;;;483329;246;1503;-39
2022/03/14 09:36:26;;;;;;;;;;;21.10;27.60;;;;;;483273;246;2179;-38
2022/03/14 09:38:29;;;;;;;;;;;21.10;27.60;;;;;;483387;246;1143;-38
2022/03/14 09:40:29;;;;;;;;;;;21.10;27.60;;;;;;483380;246;2323;-38
2022/03/14 09:42:30;;;;;;;;;;;21.10;27.60;;;;;;483467;246;1192;-38
2022/03/14 09:44:31;;;;;;;;;;;21.10;27.60;;;;;;483398;246;1062;-39
2022/03/14 09:46:34;;;;;;;;;;;21.10;27.60;;;;;;483434;246;1122;-39
2022/03/14 09:48:36;;;;;;;;;;;21.10;27.60;;;;;;483346;246;2186;-38
2022/03/14 09:50:36;;;;;;;;;;;21.10;27.60;;;;;;483445;246;1571;-38
2022/03/14 09:52:37;;;;;;;;;;;21.10;27.60;;;;;;483308;246;1086;-39
2022/03/14 09:54:39;;;;;;;;;;;21.10;27.60;;;;;;483261;246;1209;-38
2022/03/14 09:56:42;;;;;;;;;;;21.10;27.60;;;;;;483185;246;2160;-39
2022/03/14 09:58:43;;;;;;;;;;;21.20;27.60;;;;;;483282;246;1044;-39
2022/03/14 10:00:44;;;;;;;;;;;21.10;27.60;;;;;;483251;246;1089;-38
2022/03/14 10:02:46;;;;;;;;;;;21.10;27.70;;;;;;483348;246;1251;-38
2022/03/14 10:04:47;;;;;;;;;;;21.10;27.70;;;;;;483387;246;1218;-39
2022/03/14 10:06:49;;;;;;;;;;;21.10;27.70;;;;;;483290;246;1311;-39
2022/03/14 10:08:50;;;;;;;;;;;21.10;27.70;;;;;;483334;246;2045;-39
2022/03/14 10:10:51;;;;;;;;;;;21.10;27.70;;;;;;483372;246;1210;-39
2022/03/14 10:12:53;;;;;;;;;;;21.10;27.70;;;;;;483346;246;1222;-39
2022/03/14 10:14:54;;;;;;;;;;;21.10;27.80;;;;;;483426;246;1128;-39
2022/03/14 10:16:56;;;;;;;;;;;21.10;27.70;;;;;;483308;246;2180;-39
2022/03/14 10:18:57;;;;;;;;;;;21.10;27.70;;;;;;483406;246;1106;-39
2022/03/14 10:21:02;;;;;;;;;;;21.10;27.70;;;;;;483384;246;1101;-39
2022/03/14 10:23:00;;;;;;;;;;;21.10;27.80;;;;;;482976;246;1902;-39
2022/03/14 10:25:02;;;;;;;;;;;21.10;27.80;;;;;;483298;246;1180;-39
2022/03/14 10:27:03;;;;;;;;;;;21.10;27.80;;;;;;483045;246;1390;-39
2022/03/14 10:29:12;;;;;;;;;;;21.10;27.80;;;;;;483134;246;1104;-39
2022/03/14 10:31:06;;;;;;;;;;;21.10;27.80;;;;;;482631;246;2044;-39
2022/03/14 10:33:08;;;;;;;;;;;21.10;27.80;;;;;;482940;246;1101;-39
2022/03/14 10:35:09;;;;;;;;;;;21.10;27.80;;;;;;483161;246;1144;-39
2022/03/14 10:37:11;;;;;;;;;;;21.10;27.80;;;;;;483444;246;2191;-39
2022/03/14 10:39:12;;;;;;;;;;;21.10;27.90;;;;;;483347;246;1259;-39
2022/03/14 10:41:14;;;;;;;;;;;21.10;27.90;;;;;;483441;246;1123;-39
2022/03/14 10:43:15;;;;;;;;;;;21.10;27.90;;;;;;483309;246;1251;-39
2022/03/14 10:45:16;;;;;;;;;;;21.10;27.90;;;;;;483451;246;1084;-39
2022/03/14 10:47:19;;;;;;;;;;;21.10;27.90;;;;;;483404;246;1230;-39
2022/03/14 10:49:20;;;;;;;;;;;21.10;27.90;;;;;;483338;246;2157;-39
2022/03/14 10:51:20;;;;;;;;;;;21.10;27.90;;;;;;483373;246;1727;-39
2022/03/14 10:53:22;;;;;;;;;;;21.10;27.90;;;;;;483390;246;1291;-39
2022/03/14 10:55:23;;;;;;;;;;;21.10;27.80;;;;;;483147;246;1171;-39
2022/03/14 10:57:26;;;;;;;;;;;21.10;27.90;;;;;;483423;246;2153;-39
2022/03/14 10:59:26;;;;;;;;;;;21.10;27.90;;;;;;483444;246;2147;-39
2022/03/14 11:01:27;;;;;;;;;;;21.10;27.90;;;;;;483462;246;1154;-39
2022/03/14 11:03:29;;;;;;;;;;;21.10;28.00;;;;;;483551;246;1339;-39
2022/03/14 11:05:30;;;;;;;;;;;21.10;28.00;;;;;;483304;246;1105;-39
2022/03/14 11:07:31;;;;;;;;;;;21.10;27.90;;;;;;483261;246;1253;-39
2022/03/14 11:09:33;;;;;;;;;;;21.10;27.90;;;;;;483259;246;1113;-39
2022/03/14 11:11:34;;;;;;;;;;;21.10;27.90;;;;;;483089;246;1202;-39
2022/03/14 11:13:35;;;;;;;;;;;21.10;27.90;;;;;;483410;246;1134;-39
2022/03/14 11:15:37;;;;;;;;;;;21.10;27.90;;;;;;483332;246;1267;-39
2022/03/14 11:17:38;;;;;;;;;;;21.10;27.90;;;;;;483328;246;2188;-39
2022/03/14 11:19:39;;;;;;;;;;;21.10;27.90;;;;;;483247;246;1181;-39
2022/03/14 11:21:41;;;;;;;;;;;21.10;27.90;;;;;;483103;246;1403;-39
2022/03/14 11:23:42;;;;;;;;;;;21.10;27.90;;;;;;483424;246;1084;-39
2022/03/14 11:25:44;;;;;;;;;;;21.10;28.00;;;;;;483426;246;1101;-39
2022/03/14 11:27:46;;;;;;;;;;;21.10;28.00;;;;;;483424;246;1093;-39
2022/03/14 11:29:47;;;;;;;;;;;21.10;27.90;;;;;;483290;246;1082;-39
2022/03/14 11:31:49;;;;;;;;;;;21.10;28.00;;;;;;483258;246;1093;-39
2022/03/14 11:33:49;;;;;;;;;;;21.10;28.00;;;;;;483395;246;1154;-39
2022/03/14 11:35:51;;;;;;;;;;;21.10;27.90;;;;;;483269;246;1169;-39
2022/03/14 11:37:52;;;;;;;;;;;21.20;27.90;;;;;;483477;246;2188;-39
2022/03/14 11:39:53;;;;;;;;;;;21.10;28.00;;;;;;483299;246;1050;-39
2022/03/14 11:41:55;;;;;;;;;;;21.10;28.00;;;;;;483323;246;1120;-39
2022/03/14 11:43:56;;;;;;;;;;;21.10;28.00;;;;;;483419;246;1063;-39
2022/03/14 11:45:57;;;;;;;;;;;21.10;28.00;;;;;;483216;246;1081;-39
2022/03/14 11:47:59;;;;;;;;;;;21.10;28.00;;;;;;483475;246;1101;-39
2022/03/14 11:50:00;;;;;;;;;;;21.10;28.00;;;;;;483380;246;1458;-39
2022/03/14 11:52:01;;;;;;;;;;;21.10;28.00;;;;;;483553;246;1104;-39
2022/03/14 11:54:03;;;;;;;;;;;21.10;28.00;;;;;;483433;246;1088;-39
2022/03/14 11:56:05;;;;;;;;;;;21.10;28.00;;;;;;483397;246;1130;-39
2022/03/14 11:58:06;;;;;;;;;;;21.10;28.00;;;;;;483713;246;2320;-39